Time;durP1;ratioP1;P1;durP2;ratioP2;P2;SDS_P1;SDS_P2;PMS_P1;PMS_P2;Temp;Humidity;BMP_temperature;BMP_pressure;BME280_temperature;BME280_humidity;BME280_pressure;Samples;Min_cycle;Max_cycle;Signal;HPM_P1;HPM_P2
2021/08/15 00:02:18;;;;;;;4.68;4.38;;;25.80;54.10;;;;;;5051545;28;20030;-83
2021/08/15 00:04:44;;;;;;;4.47;4.28;;;25.70;54.20;;;;;;5017378;28;20042;-83
2021/08/15 00:07:10;;;;;;;4.78;4.47;;;25.70;54.30;;;;;;5036825;28;20048;-82
2021/08/15 00:09:36;;;;;;;6.85;5.13;;;25.70;54.40;;;;;;5035177;28;20021;-84
2021/08/15 00:12:06;;;;;;;5.88;5.57;;;25.60;54.50;;;;;;5032680;28;22316;-83
2021/08/15 00:14:32;;;;;;;5.03;4.75;;;25.60;54.70;;;;;;5037542;28;20026;-83
2021/08/15 00:16:58;;;;;;;4.57;4.38;;;25.50;54.70;;;;;;5034899;28;20038;-81
2021/08/15 00:19:24;;;;;;;4.78;4.57;;;25.50;54.80;;;;;;5035565;28;20030;-83
2021/08/15 00:21:51;;;;;;;5.28;4.95;;;25.50;55.00;;;;;;5035316;28;20495;-83
2021/08/15 00:24:17;;;;;;;5.10;4.68;;;25.50;55.00;;;;;;5030537;28;20045;-83
2021/08/15 00:26:43;;;;;;;4.57;4.38;;;25.40;55.10;;;;;;5034551;28;20430;-84
2021/08/15 00:29:09;;;;;;;5.50;4.55;;;25.40;55.30;;;;;;5037029;28;20040;-84
2021/08/15 00:31:35;;;;;;;4.57;4.38;;;25.30;55.30;;;;;;5034808;28;20060;-83
2021/08/15 00:34:01;;;;;;;4.40;4.20;;;25.40;55.50;;;;;;5017032;28;20067;-84
2021/08/15 00:36:28;;;;;;;4.45;4.25;;;25.30;55.50;;;;;;5015465;28;20033;-83
2021/08/15 00:38:54;;;;;;;4.22;4.00;;;25.30;56.30;;;;;;5034039;28;20033;-83
2021/08/15 00:41:21;;;;;;;4.80;4.50;;;25.30;55.80;;;;;;5037718;28;20033;-82
2021/08/15 00:43:47;;;;;;;6.13;4.57;;;25.30;55.90;;;;;;5033590;28;20041;-83
2021/08/15 00:46:13;;;;;;;4.55;4.25;;;25.20;55.90;;;;;;5034485;28;20045;-83
2021/08/15 00:48:39;;;;;;;4.75;4.55;;;25.20;56.00;;;;;;5033942;28;20052;-85
2021/08/15 00:51:05;;;;;;;4.60;4.40;;;25.20;56.20;;;;;;5030440;28;20025;-84
2021/08/15 00:53:36;;;;;;;4.53;4.32;;;25.20;56.30;;;;;;5052730;28;20037;-83
2021/08/15 00:56:03;;;;;;;4.57;4.38;;;25.20;56.40;;;;;;5034616;28;20402;-83
2021/08/15 00:58:42;;;;;;;4.97;4.78;;;25.10;56.40;;;;;;5034141;28;20042;-82
2021/08/15 01:01:09;;;;;;;4.63;4.43;;;25.00;56.50;;;;;;5033217;28;20041;-83
2021/08/15 01:03:35;;;;;;;4.55;4.35;;;25.00;56.50;;;;;;5046753;28;20421;-83
2021/08/15 01:06:02;;;;;;;5.35;4.95;;;25.10;56.60;;;;;;5032109;28;20503;-82
2021/08/15 01:08:29;;;;;;;4.45;4.25;;;25.00;56.70;;;;;;5037382;28;20394;-83
2021/08/15 01:10:55;;;;;;;4.45;4.25;;;24.90;56.80;;;;;;5033887;28;20029;-83
2021/08/15 01:13:22;;;;;;;5.32;5.03;;;24.90;56.90;;;;;;5018011;28;20483;-85
2021/08/15 01:15:48;;;;;;;4.57;4.38;;;24.90;57.10;;;;;;5017395;28;20040;-85
2021/08/15 01:18:21;;;;;;;4.80;4.53;;;24.80;57.10;;;;;;5013897;28;20041;-83
2021/08/15 01:20:47;;;;;;;4.18;3.97;;;24.80;57.30;;;;;;5033794;28;20029;-85
2021/08/15 01:23:13;;;;;;;4.40;4.20;;;24.70;57.30;;;;;;5035025;28;20021;-81
2021/08/15 01:25:39;;;;;;;4.47;4.28;;;24.70;57.40;;;;;;5032877;28;20037;-83
2021/08/15 01:28:05;;;;;;;5.25;4.85;;;24.70;57.50;;;;;;5035372;28;20037;-83
2021/08/15 01:30:31;;;;;;;5.00;4.70;;;24.70;57.50;;;;;;5015129;28;20056;-84
2021/08/15 01:32:57;;;;;;;4.90;4.70;;;24.60;57.60;;;;;;5031543;28;20025;-84
2021/08/15 01:35:24;;;;;;;5.78;5.38;;;24.60;57.70;;;;;;5035767;28;20359;-84
2021/08/15 01:37:54;;;;;;;5.00;4.80;;;24.60;57.80;;;;;;5035428;28;20041;-84
2021/08/15 01:40:20;;;;;;;4.57;4.35;;;24.60;57.90;;;;;;5033753;28;20386;-83
2021/08/15 01:42:46;;;;;;;4.20;4.00;;;24.50;57.90;;;;;;5033842;28;20032;-83
2021/08/15 01:45:13;;;;;;;3.90;3.70;;;24.50;57.90;;;;;;5030507;28;20493;-83
2021/08/15 01:47:39;;;;;;;4.25;3.97;;;24.50;57.90;;;;;;5035419;28;20041;-83
2021/08/15 01:50:06;;;;;;;3.90;3.70;;;24.40;58.00;;;;;;5033882;28;20025;-84
2021/08/15 01:52:32;;;;;;;4.18;3.88;;;24.40;58.10;;;;;;5017593;28;20029;-84
2021/08/15 01:54:58;;;;;;;3.58;3.38;;;24.40;58.20;;;;;;5034833;28;20036;-83
2021/08/15 01:57:24;;;;;;;3.90;3.70;;;24.40;58.30;;;;;;5030962;28;20025;-82
2021/08/15 01:59:50;;;;;;;4.13;3.92;;;24.40;58.40;;;;;;5032513;28;20029;-83
2021/08/15 02:02:16;;;;;;;4.55;4.30;;;24.30;58.30;;;;;;5024159;28;20037;-83
2021/08/15 02:04:42;;;;;;;3.70;3.50;;;24.30;58.30;;;;;;5021767;28;20021;-83
2021/08/15 02:07:08;;;;;;;3.67;3.25;;;24.30;58.30;;;;;;5027267;28;20033;-83
2021/08/15 02:09:34;;;;;;;3.05;2.95;;;24.30;58.30;;;;;;5028420;28;20037;-84
2021/08/15 02:12:02;;;;;;;3.38;3.28;;;24.30;58.30;;;;;;5028281;28;20034;-83
2021/08/15 02:14:28;;;;;;;3.50;3.30;;;24.30;58.30;;;;;;5029313;28;20021;-83
2021/08/15 02:16:54;;;;;;;10.48;3.58;;;24.30;58.30;;;;;;5025877;28;20486;-83
2021/08/15 02:19:20;;;;;;;3.42;3.22;;;24.20;58.30;;;;;;5027567;28;20025;-84
2021/08/15 02:21:46;;;;;;;3.53;3.33;;;24.20;58.30;;;;;;5029963;28;20030;-81
2021/08/15 02:24:13;;;;;;;3.80;3.60;;;24.20;58.30;;;;;;5030694;28;20030;-83
2021/08/15 02:26:39;;;;;;;3.80;3.60;;;24.10;58.90;;;;;;5034611;28;20029;-83
2021/08/15 02:29:05;;;;;;;3.50;3.35;;;24.10;58.30;;;;;;5031120;28;20040;-85
2021/08/15 02:31:31;;;;;;;4.22;3.92;;;24.10;58.40;;;;;;5030149;28;20052;-84
2021/08/15 02:33:57;;;;;;;4.07;3.88;;;24.00;58.40;;;;;;5015246;28;20041;-85
2021/08/15 02:36:23;;;;;;;4.40;4.15;;;24.00;58.50;;;;;;5031706;28;20029;-83
2021/08/15 02:38:49;;;;;;;3.15;2.95;;;24.00;58.50;;;;;;5037499;28;20029;-85
2021/08/15 02:41:15;;;;;;;3.60;3.40;;;23.90;58.50;;;;;;5036319;28;20041;-83
2021/08/15 02:43:41;;;;;;;3.40;3.20;;;23.90;58.50;;;;;;5042111;28;20043;-84
2021/08/15 02:46:07;;;;;;;3.03;2.92;;;23.90;58.50;;;;;;5045604;28;20033;-82
2021/08/15 02:48:34;;;;;;;3.10;3.00;;;23.80;58.50;;;;;;5037147;28;20036;-83
2021/08/15 02:51:00;;;;;;;3.08;2.97;;;23.80;59.10;;;;;;5033241;28;20042;-84
2021/08/15 02:53:26;;;;;;;3.83;3.58;;;23.80;58.50;;;;;;5038691;28;20368;-83
2021/08/15 02:55:52;;;;;;;3.30;3.10;;;23.70;58.50;;;;;;5038201;28;20092;-83
2021/08/15 02:58:19;;;;;;;3.95;3.60;;;23.70;58.50;;;;;;5038160;28;20026;-83
2021/08/15 03:00:45;;;;;;;3.50;3.30;;;23.70;58.50;;;;;;5035055;28;20474;-83
2021/08/15 03:03:11;;;;;;;3.45;3.15;;;23.60;58.50;;;;;;5033660;28;20029;-83
2021/08/15 03:05:37;;;;;;;3.65;3.40;;;23.60;58.50;;;;;;5038505;28;20033;-85
2021/08/15 03:08:03;;;;;;;3.45;3.20;;;23.60;58.40;;;;;;5036931;28;20049;-83
2021/08/15 03:10:29;;;;;;;3.35;3.20;;;23.60;58.40;;;;;;5037888;28;20030;-84
2021/08/15 03:12:55;;;;;;;3.10;3.00;;;23.60;58.40;;;;;;5020452;28;20029;-83
2021/08/15 03:15:21;;;;;;;3.33;3.13;;;23.50;58.40;;;;;;5034391;28;20049;-86
2021/08/15 03:17:47;;;;;;;3.60;3.40;;;23.50;58.40;;;;;;5036380;28;20371;-83
2021/08/15 03:20:14;;;;;;;3.58;3.38;;;23.40;58.40;;;;;;5037119;28;20032;-83
2021/08/15 03:22:40;;;;;;;3.70;3.50;;;23.40;58.50;;;;;;5037696;28;20026;-84
2021/08/15 03:25:06;;;;;;;3.85;3.65;;;23.40;58.50;;;;;;5034510;28;20029;-84
2021/08/15 03:27:32;;;;;;;3.88;3.67;;;23.30;58.40;;;;;;5018702;28;20048;-83
2021/08/15 03:29:59;;;;;;;3.92;3.72;;;23.30;58.50;;;;;;5034132;28;20372;-83
2021/08/15 03:32:25;;;;;;;3.88;3.67;;;23.30;58.50;;;;;;5021214;28;20045;-84
2021/08/15 03:34:51;;;;;;;3.50;3.33;;;23.30;58.50;;;;;;5024141;28;20037;-84
2021/08/15 03:37:18;;;;;;;13.65;3.40;;;23.30;58.50;;;;;;5044109;28;20033;-84
2021/08/15 03:39:44;;;;;;;3.47;3.28;;;23.20;58.50;;;;;;5035913;28;20032;-83
2021/08/15 03:42:10;;;;;;;3.72;3.47;;;23.20;58.50;;;;;;5033220;28;20029;-84
2021/08/15 03:44:36;;;;;;;3.40;3.20;;;23.20;58.60;;;;;;5039448;28;20411;-83
2021/08/15 03:47:02;;;;;;;3.28;3.10;;;23.10;58.60;;;;;;5035540;28;20045;-83
2021/08/15 03:49:28;;;;;;;3.00;2.90;;;23.10;58.70;;;;;;5035872;28;20033;-83
2021/08/15 03:51:57;;;;;;;3.10;3.00;;;23.10;58.70;;;;;;5037212;28;20026;-83
2021/08/15 03:54:24;;;;;;;3.20;3.00;;;23.10;58.70;;;;;;5032222;28;20034;-84
2021/08/15 03:56:50;;;;;;;2.92;2.72;;;23.00;58.70;;;;;;5036002;28;20041;-84
2021/08/15 03:59:17;;;;;;;2.90;2.80;;;23.00;58.80;;;;;;5051604;28;20033;-83
2021/08/15 04:01:43;;;;;;;3.00;2.80;;;22.90;58.70;;;;;;5036430;28;20406;-83
2021/08/15 04:04:09;;;;;;;3.17;2.97;;;22.90;58.80;;;;;;5004830;28;20029;-84
2021/08/15 04:06:35;;;;;;;2.80;2.70;;;22.90;58.80;;;;;;5034737;28;20028;-84
2021/08/15 04:09:01;;;;;;;2.97;2.88;;;22.90;58.80;;;;;;5033154;28;20479;-83
2021/08/15 04:11:28;;;;;;;2.80;2.70;;;22.90;58.90;;;;;;5052732;28;20038;-83
2021/08/15 04:13:54;;;;;;;2.97;2.85;;;22.80;58.90;;;;;;5036747;28;20033;-83
2021/08/15 04:16:20;;;;;;;8.00;3.05;;;22.80;58.90;;;;;;5032954;28;20044;-84
2021/08/15 04:18:46;;;;;;;2.55;2.45;;;22.80;59.00;;;;;;5034990;28;20454;-82
2021/08/15 04:21:12;;;;;;;2.90;2.80;;;22.80;59.10;;;;;;5031243;28;20042;-83
2021/08/15 04:23:38;;;;;;;3.00;2.80;;;22.70;59.10;;;;;;5020497;28;20474;-84
2021/08/15 04:26:04;;;;;;;3.10;2.90;;;22.70;59.10;;;;;;5036749;28;20034;-83
2021/08/15 04:28:31;;;;;;;2.53;2.42;;;22.70;59.20;;;;;;5036302;28;20045;-84
2021/08/15 04:30:57;;;;;;;3.10;2.90;;;22.70;59.30;;;;;;5026720;28;20483;-83
2021/08/15 04:33:26;;;;;;;2.83;2.72;;;22.60;59.20;;;;;;5044781;28;20052;-84
2021/08/15 04:35:52;;;;;;;2.80;2.70;;;22.60;59.30;;;;;;5034378;28;20073;-83
2021/08/15 04:38:20;;;;;;;2.70;2.60;;;22.60;59.30;;;;;;5050668;28;20410;-86
2021/08/15 04:40:46;;;;;;;2.70;2.60;;;22.50;59.30;;;;;;5036232;28;20030;-83
2021/08/15 04:43:12;;;;;;;2.90;2.70;;;22.50;59.30;;;;;;5035481;28;20498;-83
2021/08/15 04:45:38;;;;;;;2.85;2.65;;;22.50;59.90;;;;;;5034139;28;20021;-83
2021/08/15 04:48:04;;;;;;;2.90;2.75;;;22.50;59.40;;;;;;5047664;28;20050;-83
2021/08/15 04:50:31;;;;;;;2.80;2.70;;;22.50;59.40;;;;;;5036707;28;20041;-84
2021/08/15 04:52:57;;;;;;;3.25;2.95;;;22.40;59.40;;;;;;5035900;28;20037;-83
2021/08/15 04:55:23;;;;;;;6.15;3.22;;;22.40;59.40;;;;;;5035845;28;20037;-83
2021/08/15 04:57:49;;;;;;;2.72;2.63;;;22.40;59.40;;;;;;5034587;28;20033;-84
2021/08/15 05:00:15;;;;;;;2.85;2.75;;;22.40;59.40;;;;;;5031233;28;20037;-83
2021/08/15 05:02:41;;;;;;;2.88;2.78;;;22.40;59.40;;;;;;5047669;28;20040;-85
2021/08/15 05:05:08;;;;;;;3.00;2.90;;;22.40;59.40;;;;;;5036195;28;20033;-83
2021/08/15 05:07:34;;;;;;;2.70;2.60;;;22.40;59.40;;;;;;5035730;28;20045;-83
2021/08/15 05:10:00;;;;;;;3.17;2.95;;;22.40;59.40;;;;;;5034661;28;20029;-83
2021/08/15 05:12:26;;;;;;;2.97;2.88;;;22.30;59.40;;;;;;5030914;28;20053;-85
2021/08/15 05:14:52;;;;;;;4.57;3.40;;;22.40;59.40;;;;;;5033941;28;20045;-83
2021/08/15 05:17:18;;;;;;;3.40;3.20;;;22.40;59.40;;;;;;5036606;28;20042;-84
2021/08/15 05:19:44;;;;;;;3.35;3.15;;;22.40;60.10;;;;;;5034349;28;20362;-83
2021/08/15 05:22:10;;;;;;;3.30;3.10;;;22.40;59.50;;;;;;5035347;28;20046;-83
2021/08/15 05:24:36;;;;;;;3.08;2.97;;;22.40;59.50;;;;;;5034697;28;20025;-84
2021/08/15 05:27:03;;;;;;;3.13;3.03;;;22.40;59.60;;;;;;5031853;28;20034;-83
2021/08/15 05:29:29;;;;;;;6.07;3.45;;;22.40;59.60;;;;;;5037358;28;20037;-83
2021/08/15 05:31:55;;;;;;;3.55;3.25;;;22.30;59.60;;;;;;5040054;28;20033;-83
2021/08/15 05:34:21;;;;;;;3.22;3.03;;;22.20;59.70;;;;;;5040187;28;20045;-83
2021/08/15 05:36:47;;;;;;;3.20;3.10;;;22.20;59.70;;;;;;5032716;28;20028;-83
2021/08/15 05:39:13;;;;;;;3.83;3.40;;;22.20;59.80;;;;;;5031211;28;20053;-83
2021/08/15 05:41:39;;;;;;;3.05;2.95;;;22.20;59.80;;;;;;5036705;28;20033;-83
2021/08/15 05:44:05;;;;;;;3.58;3.38;;;22.20;59.80;;;;;;5035288;28;20029;-82
2021/08/15 05:46:31;;;;;;;3.70;3.50;;;22.20;59.80;;;;;;5033095;28;20064;-83
2021/08/15 05:48:57;;;;;;;3.58;3.38;;;22.20;59.80;;;;;;5033824;28;20040;-83
2021/08/15 05:51:24;;;;;;;3.72;3.38;;;22.20;59.70;;;;;;5029752;28;20475;-83
2021/08/15 05:53:50;;;;;;;3.90;3.70;;;22.20;59.80;;;;;;5033129;28;20045;-83
2021/08/15 05:56:16;;;;;;;3.70;3.50;;;22.20;59.80;;;;;;5036345;28;20378;-84
2021/08/15 05:58:42;;;;;;;4.00;3.70;;;22.20;59.80;;;;;;5034889;28;20029;-84
2021/08/15 06:01:08;;;;;;;3.70;3.50;;;22.10;59.80;;;;;;5034228;28;20505;-85
2021/08/15 06:03:35;;;;;;;4.65;4.25;;;22.20;59.90;;;;;;5032046;28;20040;-86
2021/08/15 06:06:01;;;;;;;3.83;3.47;;;22.20;59.80;;;;;;5031605;28;20030;-84
2021/08/15 06:08:27;;;;;;;3.33;3.13;;;22.40;59.70;;;;;;5036743;28;20037;-83
2021/08/15 06:10:54;;;;;;;3.60;3.40;;;22.60;59.50;;;;;;5033285;28;20044;-84
2021/08/15 06:13:20;;;;;;;3.42;3.30;;;22.70;59.20;;;;;;5000733;28;20049;-85
2021/08/15 06:15:46;;;;;;;4.80;4.50;;;22.90;58.90;;;;;;5032302;28;20402;-83
2021/08/15 06:18:13;;;;;;;4.63;4.43;;;23.10;58.70;;;;;;5029454;28;20038;-84
2021/08/15 06:20:39;;;;;;;3.55;3.38;;;23.30;58.50;;;;;;5035084;28;20030;-83
2021/08/15 06:23:05;;;;;;;4.45;3.60;;;23.40;58.20;;;;;;5034725;28;20036;-83
2021/08/15 06:25:31;;;;;;;3.60;3.40;;;23.50;58.20;;;;;;5034759;28;20033;-82
2021/08/15 06:27:58;;;;;;;3.75;3.55;;;23.50;58.10;;;;;;5034581;28;20064;-83
2021/08/15 06:30:24;;;;;;;4.10;3.90;;;23.60;58.20;;;;;;5028179;28;20041;-84
2021/08/15 06:32:54;;;;;;;3.78;3.58;;;23.70;58.10;;;;;;5033569;28;20029;-84
2021/08/15 06:35:24;;;;;;;4.25;4.05;;;23.80;58.10;;;;;;5033250;28;20041;-84
2021/08/15 06:37:52;;;;;;;3.90;3.70;;;23.80;58.00;;;;;;5033349;28;20033;-84
2021/08/15 06:40:19;;;;;;;4.00;3.80;;;23.80;57.90;;;;;;5016717;28;20037;-85
2021/08/15 06:42:45;;;;;;;3.72;3.53;;;23.70;57.90;;;;;;5034441;28;20036;-83
2021/08/15 06:45:12;;;;;;;3.67;3.47;;;23.80;58.00;;;;;;5029498;28;20399;-85
2021/08/15 06:47:38;;;;;;;4.10;3.75;;;23.70;58.00;;;;;;5019077;28;20481;-83
2021/08/15 06:50:05;;;;;;;4.20;3.90;;;23.80;58.00;;;;;;5033328;28;20482;-84
2021/08/15 06:52:31;;;;;;;3.20;3.10;;;23.70;57.90;;;;;;5033259;28;20041;-83
2021/08/15 06:54:58;;;;;;;3.40;3.30;;;23.70;58.00;;;;;;5031876;28;20032;-83
2021/08/15 06:57:24;;;;;;;3.90;3.70;;;23.70;58.00;;;;;;5031734;28;20025;-84
2021/08/15 06:59:50;;;;;;;4.78;4.53;;;23.80;57.90;;;;;;5031658;28;20064;-84
2021/08/15 07:02:16;;;;;;;4.63;4.43;;;24.00;57.60;;;;;;5047925;28;20033;-85
2021/08/15 07:04:42;;;;;;;4.90;4.55;;;24.20;57.40;;;;;;5033214;28;20037;-83
2021/08/15 07:07:08;;;;;;;5.65;5.38;;;24.40;57.10;;;;;;5037684;28;20025;-85
2021/08/15 07:09:34;;;;;;;5.40;5.10;;;24.70;56.80;;;;;;5035782;28;20025;-83
2021/08/15 07:12:00;;;;;;;5.25;5.05;;;24.90;56.40;;;;;;5050886;28;20045;-84
2021/08/15 07:14:29;;;;;;;7.00;6.70;;;25.30;56.10;;;;;;5039600;28;20386;-83
2021/08/15 07:16:58;;;;;;;7.07;6.53;;;25.50;55.80;;;;;;5036189;28;20041;-83
2021/08/15 07:19:24;;;;;;;7.97;7.57;;;25.70;55.60;;;;;;5036657;28;20040;-85
2021/08/15 07:21:51;;;;;;;7.47;7.10;;;25.70;55.50;;;;;;5036792;28;20028;-84
2021/08/15 07:24:17;;;;;;;8.10;7.50;;;25.70;55.60;;;;;;5034093;28;20513;-85
2021/08/15 07:26:43;;;;;;;8.55;8.05;;;25.60;55.80;;;;;;5038214;28;20034;-83
2021/08/15 07:29:09;;;;;;;8.35;7.85;;;25.50;55.90;;;;;;5036567;28;20037;-84
2021/08/15 07:31:35;;;;;;;9.73;9.23;;;25.50;55.90;;;;;;5037076;28;20038;-84
2021/08/15 07:34:01;;;;;;;10.00;9.50;;;25.50;55.80;;;;;;5035894;28;20037;-84
2021/08/15 07:36:27;;;;;;;8.95;8.48;;;25.70;55.80;;;;;;5034181;28;20033;-84
2021/08/15 07:38:53;;;;;;;7.90;7.53;;;25.70;55.70;;;;;;5035689;28;20026;-84
2021/08/15 07:41:19;;;;;;;6.80;6.40;;;25.80;55.60;;;;;;5037239;28;20048;-84
2021/08/15 07:43:46;;;;;;;6.55;6.15;;;25.90;55.60;;;;;;5019717;28;20507;-84
2021/08/15 07:46:13;;;;;;;7.47;7.15;;;25.90;55.40;;;;;;5035145;28;20259;-83
2021/08/15 07:48:40;;;;;;;8.60;7.95;;;26.00;55.40;;;;;;5035258;28;20653;-86
2021/08/15 07:51:06;;;;;;;6.82;6.53;;;26.20;55.30;;;;;;5033218;28;20033;-84
2021/08/15 07:53:33;;;;;;;6.47;6.18;;;26.30;55.00;;;;;;5037419;28;20475;-85
2021/08/15 07:55:59;;;;;;;6.18;5.88;;;26.50;54.80;;;;;;5037902;28;20029;-84
2021/08/15 07:58:25;;;;;;;6.15;5.85;;;26.60;54.70;;;;;;5032837;28;20398;-84
2021/08/15 08:00:51;;;;;;;8.07;7.30;;;26.70;54.60;;;;;;5046266;28;20041;-84
2021/08/15 08:03:17;;;;;;;7.13;6.82;;;26.80;54.40;;;;;;5045747;28;20372;-84
2021/08/15 08:05:44;;;;;;;8.43;8.02;;;27.00;54.40;;;;;;5035722;28;20037;-85
2021/08/15 08:08:10;;;;;;;8.02;7.60;;;27.00;54.20;;;;;;5035977;28;20056;-84
2021/08/15 08:10:36;;;;;;;7.45;6.97;;;27.10;54.10;;;;;;5034830;28;20501;-84
2021/08/15 08:13:02;;;;;;;6.95;6.65;;;27.10;54.00;;;;;;5017800;28;20486;-84
2021/08/15 08:15:28;;;;;;;7.30;6.97;;;27.00;54.10;;;;;;5018682;28;20045;-84
2021/08/15 08:17:55;;;;;;;6.50;6.20;;;26.90;54.30;;;;;;5033459;28;20018;-85
2021/08/15 08:20:21;;;;;;;6.85;6.55;;;26.80;54.40;;;;;;5036572;28;20048;-86
2021/08/15 08:22:48;;;;;;;8.18;7.78;;;26.80;54.60;;;;;;5020462;28;20406;-84
2021/08/15 08:25:14;;;;;;;8.38;7.97;;;26.70;54.50;;;;;;5033072;28;20034;-84
2021/08/15 08:27:40;;;;;;;6.68;6.25;;;26.70;54.40;;;;;;5035019;28;20467;-84
2021/08/15 08:30:07;;;;;;;7.57;7.18;;;26.80;54.40;;;;;;5032060;28;20033;-85
2021/08/15 08:32:33;;;;;;;8.57;8.18;;;27.00;54.30;;;;;;5052151;28;20025;-84
2021/08/15 08:34:59;;;;;;;7.35;7.05;;;27.20;54.00;;;;;;5047363;28;20068;-84
2021/08/15 08:37:25;;;;;;;7.50;7.13;;;27.30;53.70;;;;;;5041846;28;20029;-85
2021/08/15 08:39:59;;;;;;;6.93;6.53;;;27.40;53.50;;;;;;5033906;28;20418;-85
2021/08/15 08:42:31;;;;;;;7.43;7.05;;;27.60;53.60;;;;;;5033394;28;20033;-84
2021/08/15 08:45:00;;;;;;;7.32;6.93;;;27.80;53.30;;;;;;5032080;28;20475;-86
2021/08/15 08:47:28;;;;;;;6.43;6.13;;;28.00;53.10;;;;;;5050333;28;20363;-85
2021/08/15 08:49:54;;;;;;;7.60;7.28;;;28.10;52.90;;;;;;5035336;28;20041;-85
2021/08/15 08:52:25;;;;;;;7.53;7.15;;;28.30;52.70;;;;;;5034578;28;20029;-83
2021/08/15 08:54:52;;;;;;;8.23;7.72;;;28.50;52.50;;;;;;5032763;28;20041;-85
2021/08/15 08:57:18;;;;;;;9.07;8.68;;;28.60;52.30;;;;;;5030221;28;20025;-84
2021/08/15 08:59:45;;;;;;;8.48;8.07;;;28.70;52.10;;;;;;5036505;28;20033;-86
2021/08/15 09:02:11;;;;;;;8.73;8.32;;;28.60;52.10;;;;;;5051294;28;20037;-84
2021/08/15 09:04:37;;;;;;;11.43;10.88;;;28.60;52.10;;;;;;5033087;28;20037;-84
2021/08/15 09:07:10;;;;;;;11.77;10.88;;;28.60;52.00;;;;;;5036439;28;20370;-86
2021/08/15 09:09:38;;;;;;;13.25;12.63;;;28.70;51.80;;;;;;5035638;28;20037;-84
2021/08/15 09:12:05;;;;;;;9.45;9.02;;;28.70;51.60;;;;;;5033018;28;20037;-85
2021/08/15 09:14:32;;;;;;;14.63;13.95;;;28.80;51.60;;;;;;5037549;28;20036;-86
2021/08/15 09:17:04;;;;;;;15.48;14.52;;;28.90;51.40;;;;;;5033495;28;20390;-85
2021/08/15 09:19:50;;;;;;;13.35;12.75;;;29.10;51.10;;;;;;5014458;28;20032;-84
2021/08/15 09:22:20;;;;;;;14.02;13.40;;;29.20;50.70;;;;;;5042027;28;20434;-85
2021/08/15 09:24:54;;;;;;;19.35;18.45;;;29.40;50.60;;;;;;5031142;28;20041;-85
2021/08/15 09:27:25;;;;;;;23.95;22.83;;;29.60;51.00;;;;;;5045404;28;20394;-85
2021/08/15 09:30:16;;;;;;;19.92;18.85;;;29.70;50.10;;;;;;5032724;28;20037;-84
2021/08/15 09:32:46;;;;;;;25.27;24.08;;;29.90;49.80;;;;;;5064182;28;20041;-87
2021/08/15 09:35:17;;;;;;;15.70;14.65;;;30.00;49.70;;;;;;5052273;28;20390;-85
2021/08/15 09:37:43;;;;;;;16.92;16.13;;;30.20;49.50;;;;;;5027764;28;20028;-85
2021/08/15 09:40:25;;;;;;;16.35;15.57;;;30.20;49.20;;;;;;5043018;28;20398;-86
2021/08/15 09:42:51;;;;;;;16.95;16.15;;;30.20;49.20;;;;;;5037908;28;20020;-86
2021/08/15 09:45:31;;;;;;;15.15;14.45;;;30.20;49.10;;;;;;5049565;28;20036;-85
2021/08/15 09:47:57;;;;;;;17.57;16.37;;;30.20;49.10;;;;;;5034746;28;20033;-84
2021/08/15 09:50:23;;;;;;;14.93;14.23;;;30.20;49.00;;;;;;5055566;28;20041;-84
2021/08/15 09:52:50;;;;;;;16.00;15.18;;;30.40;48.90;;;;;;5063231;28;20037;-84
2021/08/15 09:55:16;;;;;;;15.32;14.63;;;30.50;48.60;;;;;;5059759;28;20037;-84
2021/08/15 09:57:42;;;;;;;14.88;14.18;;;30.50;48.40;;;;;;5037014;28;20234;-85
2021/08/15 10:00:30;;;;;;;10.85;10.32;;;30.60;48.30;;;;;;5049342;28;20041;-84
2021/08/15 10:02:56;;;;;;;10.57;10.07;;;30.60;47.90;;;;;;5038664;28;20036;-85
2021/08/15 10:05:22;;;;;;;10.27;9.77;;;30.60;47.90;;;;;;5030560;28;20043;-85
2021/08/15 10:07:48;;;;;;;10.80;10.30;;;30.70;47.80;;;;;;5002823;28;20021;-85
2021/08/15 10:10:14;;;;;;;11.52;11.00;;;30.70;47.60;;;;;;4999393;28;20037;-84
2021/08/15 10:12:40;;;;;;;10.50;9.98;;;30.80;47.50;;;;;;5016858;28;20029;-84
2021/08/15 10:15:10;;;;;;;11.90;11.30;;;30.90;47.20;;;;;;5030690;28;20021;-85
2021/08/15 10:17:37;;;;;;;10.98;10.48;;;30.90;47.10;;;;;;5070679;28;20025;-85
2021/08/15 10:20:05;;;;;;;12.20;11.48;;;31.00;47.60;;;;;;5037228;28;20057;-85
2021/08/15 10:22:32;;;;;;;8.57;8.13;;;31.20;46.90;;;;;;5054180;28;20494;-85
2021/08/15 10:25:01;;;;;;;9.30;8.82;;;31.30;46.50;;;;;;5012778;28;20030;-85
2021/08/15 10:27:39;;;;;;;9.30;8.90;;;31.40;46.40;;;;;;5047362;28;20041;-84
2021/08/15 10:30:25;;;;;;;9.40;9.00;;;31.50;46.00;;;;;;5049494;28;20052;-85
2021/08/15 10:32:54;;;;;;;7.72;7.32;;;31.50;45.80;;;;;;5053929;28;20040;-84
2021/08/15 10:35:21;;;;;;;8.45;7.95;;;31.60;45.70;;;;;;5056001;28;20479;-85
2021/08/15 10:37:49;;;;;;;8.70;8.30;;;31.50;45.70;;;;;;5022642;28;20049;-84
2021/08/15 10:40:45;;;;;;;7.90;7.50;;;31.40;46.40;;;;;;5037373;28;20029;-85
2021/08/15 10:43:16;;;;;;;10.07;9.18;;;31.20;45.70;;;;;;5058372;28;20044;-85
2021/08/15 10:45:42;;;;;;;10.85;10.25;;;31.00;45.90;;;;;;5039948;28;20036;-85
2021/08/15 10:48:08;;;;;;;9.75;9.35;;;30.90;46.00;;;;;;5035511;28;20044;-84
2021/08/15 10:50:55;;;;;;;9.70;9.25;;;30.80;46.10;;;;;;5059417;28;20040;-84
2021/08/15 10:55:54;;;;;;;10.60;10.05;;;30.90;46.40;;;;;;5060717;28;20040;-85
2021/08/15 10:58:36;;;;;;;8.45;8.05;;;31.00;45.50;;;;;;5023950;28;20037;-83
2021/08/15 11:01:05;;;;;;;8.35;7.95;;;31.20;45.30;;;;;;5047938;28;20044;-85
2021/08/15 11:03:32;;;;;;;8.00;7.60;;;31.30;45.10;;;;;;5001308;28;20041;-85
2021/08/15 11:06:00;;;;;;;8.25;7.57;;;31.40;44.90;;;;;;5034877;28;20056;-84
2021/08/15 11:08:33;;;;;;;7.15;6.80;;;31.60;44.80;;;;;;5071181;28;20041;-85
2021/08/15 11:11:23;;;;;;;7.32;7.03;;;31.60;44.60;;;;;;5038002;28;20037;-85
2021/08/15 11:14:21;;;;;;;9.02;8.50;;;31.70;44.50;;;;;;5030345;28;20036;-85
2021/08/15 11:16:49;;;;;;;7.60;7.20;;;31.70;44.40;;;;;;5052242;28;20025;-85
2021/08/15 11:19:15;;;;;;;7.68;7.28;;;31.70;44.40;;;;;;5021937;28;20410;-84
2021/08/15 11:22:10;;;;;;;7.70;7.00;;;31.70;44.40;;;;;;5056584;28;20612;-84
2021/08/15 11:24:43;;;;;;;7.30;6.90;;;31.70;44.40;;;;;;5034966;28;20052;-86
2021/08/15 11:27:10;;;;;;;7.57;7.18;;;31.70;44.30;;;;;;5084337;28;20040;-84
2021/08/15 11:29:37;;;;;;;8.45;7.95;;;31.70;44.30;;;;;;5059549;28;20029;-84
2021/08/15 11:32:03;;;;;;;7.75;7.28;;;31.80;44.30;;;;;;5040435;28;20033;-85
2021/08/15 11:34:29;;;;;;;7.13;6.82;;;31.80;44.00;;;;;;5037139;28;20060;-84
2021/08/15 11:37:00;;;;;;;7.30;7.00;;;31.70;44.00;;;;;;5037473;28;20029;-84
2021/08/15 11:39:37;;;;;;;7.80;7.30;;;31.70;44.20;;;;;;5016236;28;20061;-83
2021/08/15 11:42:09;;;;;;;7.45;7.05;;;31.70;44.10;;;;;;5033423;28;20129;-84
2021/08/15 11:44:48;;;;;;;6.57;6.28;;;31.90;43.90;;;;;;5037765;28;20034;-84
2021/08/15 11:47:22;;;;;;;7.68;7.28;;;32.00;43.70;;;;;;5033846;28;20040;-84
2021/08/15 11:49:48;;;;;;;8.35;7.85;;;32.00;43.50;;;;;;5052328;28;20033;-84
2021/08/15 11:52:16;;;;;;;7.82;7.43;;;32.10;43.60;;;;;;5058631;28;20044;-84
2021/08/15 11:54:42;;;;;;;6.82;6.53;;;32.10;43.40;;;;;;5051891;28;20056;-85
2021/08/15 11:57:11;;;;;;;6.55;6.25;;;32.00;43.40;;;;;;5034924;28;20479;-84
2021/08/15 11:59:41;;;;;;;6.90;6.60;;;31.90;43.50;;;;;;5053935;28;20037;-84
2021/08/15 12:02:17;;;;;;;8.18;7.78;;;31.90;43.70;;;;;;5050513;28;20100;-83
2021/08/15 12:04:44;;;;;;;6.78;6.47;;;31.80;43.70;;;;;;5037955;28;20041;-84
2021/08/15 12:07:10;;;;;;;7.15;6.82;;;31.80;43.60;;;;;;5052529;28;20482;-85
2021/08/15 12:09:36;;;;;;;7.68;7.28;;;31.80;43.70;;;;;;5063635;28;20037;-84
2021/08/15 12:12:05;;;;;;;7.45;7.15;;;31.80;43.60;;;;;;5034696;28;20041;-84
2021/08/15 12:14:36;;;;;;;7.10;6.80;;;31.90;43.90;;;;;;5069345;28;20055;-87
2021/08/15 12:17:02;;;;;;;8.05;7.63;;;32.00;43.40;;;;;;5052879;28;20040;-84
2021/08/15 12:19:32;;;;;;;7.88;7.47;;;32.00;43.30;;;;;;5077182;28;20032;-84
2021/08/15 12:21:59;;;;;;;8.15;7.65;;;32.00;43.10;;;;;;5046726;28;20035;-84
2021/08/15 12:24:27;;;;;;;7.20;6.80;;;32.00;43.10;;;;;;5054082;28;20025;-84
2021/08/15 12:27:06;;;;;;;7.32;7.03;;;32.00;43.20;;;;;;5036301;28;20048;-83
2021/08/15 12:29:36;;;;;;;8.30;7.90;;;32.00;43.10;;;;;;5057771;28;20033;-83
2021/08/15 12:32:16;;;;;;;7.63;7.32;;;32.00;43.00;;;;;;5055488;28;20025;-84
2021/08/15 12:34:57;;;;;;;6.90;6.60;;;31.90;43.00;;;;;;5039929;28;20052;-84
2021/08/15 12:37:28;;;;;;;8.23;7.82;;;31.80;43.10;;;;;;5056250;28;20359;-83
2021/08/15 12:40:07;;;;;;;7.90;7.50;;;31.70;43.20;;;;;;5038532;28;20033;-81
2021/08/15 12:42:34;;;;;;;7.53;7.13;;;31.60;43.10;;;;;;5054293;28;20404;-84
2021/08/15 12:45:05;;;;;;;7.35;7.00;;;31.50;43.70;;;;;;5035181;28;20041;-85
2021/08/15 12:47:35;;;;;;;8.48;8.07;;;31.40;43.10;;;;;;5038290;28;20040;-84
2021/08/15 12:50:07;;;;;;;9.00;8.52;;;31.40;43.00;;;;;;5022399;28;20040;-86
2021/08/15 12:52:53;;;;;;;7.90;7.50;;;31.30;43.00;;;;;;5038415;28;20126;-82